Tipp, Ohio
Current Conditions -  °F | °C
As of 3:22 AM on Monday 26 Jan 2015 (Local Time) from KDAY Reporting Station
Light Snow Light Snow  
Wind Chill:   Ceiling: 3500
Heat Index: 20°   Visibility: 2mi
Dew Point: 16°   Wind: 20mph
Humidity: 85%   Direction: 10°N
Pressure: 29.79"   Gusts: NA
Location:  39.9332°N, 84.1192°W
Report Text: KDAY 260822Z 01017KT 2SM -SN BR OVC035 M07/M09 A2979 RMK AO2 P0000 T10671089 $
Loading
Personal Weather Stations






























Interactive Weather Map New forecast layout! Learn more

10-Day Weather Forecast

Advertisements
Track Severe Weather on mobile